Terminal Aerodrome Forecast
Issued by NWS Northern Indiana

Home | Current Version | Previous Version | Text Only | Print | Product List | Glossary Off
Versions: 1 2 3 4 5 6 7 8 9 10 11 12 13 14 15 16 17 18

000
FTUS43 KIWX 140500
TAFFWA
TAF
KFWA 140521Z 1406/1506 20017G25KT P6SM FEW060 OVC150
     FM140730 20018G27KT 6SM SHRA VCTS BKN050CB OVC100
     FM141100 20018G28KT 4SM SHRA VCTS OVC025CB
     FM141500 28018G28KT 4SM -SHRA BR OVC015
     FM141800 30015G25KT P6SM VCSH OVC015
     FM150300 32015KT 2SM -SN OVC010=

USA.gov is the U.S. government's official web portal to all federal, state and local government web resources and services.